Time;durP1;ratioP1;P1;durP2;ratioP2;P2;SDS_P1;SDS_P2;PMS_P1;PMS_P2;Temp;Humidity;BMP_temperature;BMP_pressure;BME280_temperature;BME280_humidity;BME280_pressure;Samples;Min_cycle;Max_cycle;Signal;HPM_P1;HPM_P2
2022/05/16 00:01:45;;;;;;;7.82;5.90;;;;;;;;;;5040566;28;20314;-49
2022/05/16 00:04:11;;;;;;;8.10;5.33;;;;;;;;;;5042356;28;20603;-48
2022/05/16 00:06:36;;;;;;;7.33;5.90;;;;;;;;;;5038280;28;20490;-49
2022/05/16 00:09:01;;;;;;;9.02;5.65;;;;;;;;;;5041152;28;20484;-49
2022/05/16 00:11:27;;;;;;;6.20;5.32;;;;;;;;;;5041769;28;20550;-49
2022/05/16 00:13:52;;;;;;;6.87;6.17;;;;;;;;;;5040626;28;20025;-50
2022/05/16 00:16:17;;;;;;;7.53;5.90;;;;;;;;;;5041317;28;20021;-49
2022/05/16 00:18:42;;;;;;;5.43;4.90;;;;;;;;;;5040337;28;20415;-50
2022/05/16 00:21:07;;;;;;;6.63;5.30;;;;;;;;;;5040496;28;20488;-49
2022/05/16 00:23:33;;;;;;;8.80;5.67;;;;;;;;;;5042544;28;20491;-49
2022/05/16 00:25:58;;;;;;;7.73;5.43;;;;;;;;;;5041607;28;20480;-49
2022/05/16 00:28:23;;;;;;;7.53;5.80;;;;;;;;;;5043466;28;20530;-49
2022/05/16 00:30:48;;;;;;;7.33;5.60;;;;;;;;;;5042833;28;20024;-48
2022/05/16 00:33:14;;;;;;;5.90;5.30;;;;;;;;;;5037409;28;20578;-49
2022/05/16 00:35:39;;;;;;;7.45;5.63;;;;;;;;;;5044855;28;20670;-49
2022/05/16 00:38:04;;;;;;;8.80;5.80;;;;;;;;;;5040003;28;20055;-49
2022/05/16 00:40:30;;;;;;;7.65;5.38;;;;;;;;;;5036910;28;20519;-49
2022/05/16 00:43:05;;;;;;;6.78;5.25;;;;;;;;;;5039445;28;20055;-50
2022/05/16 00:45:31;;;;;;;7.60;5.30;;;;;;;;;;5044050;28;20021;-49
2022/05/16 00:47:56;;;;;;;7.03;5.45;;;;;;;;;;5040419;28;20024;-49
2022/05/16 00:50:21;;;;;;;6.20;5.23;;;;;;;;;;5039583;28;20465;-49
2022/05/16 00:52:47;;;;;;;8.68;5.40;;;;;;;;;;5043033;28;20306;-49
2022/05/16 00:55:13;;;;;;;6.07;5.22;;;;;;;;;;5040366;28;20013;-49
2022/05/16 00:57:39;;;;;;;6.43;5.57;;;;;;;;;;5034161;28;20431;-50
2022/05/16 01:00:05;;;;;;;6.05;5.25;;;;;;;;;;5038256;28;20017;-48
2022/05/16 01:05:14;;;;;;;5.88;5.20;;;;;;;;;;5038845;28;20111;-48
2022/05/16 01:07:40;;;;;;;7.27;5.30;;;;;;;;;;5044277;28;20486;-49
2022/05/16 01:10:05;;;;;;;6.95;5.20;;;;;;;;;;5043294;28;20540;-48
2022/05/16 01:12:31;;;;;;;8.02;5.60;;;;;;;;;;5038613;28;20036;-48
2022/05/16 01:14:57;;;;;;;7.68;5.43;;;;;;;;;;5038807;28;20025;-50
2022/05/16 01:17:22;;;;;;;7.57;5.60;;;;;;;;;;5038747;28;20385;-51
2022/05/16 01:19:47;;;;;;;6.97;5.45;;;;;;;;;;5039201;28;20021;-50
2022/05/16 01:22:18;;;;;;;6.15;4.65;;;;;;;;;;5037989;28;20048;-50
2022/05/16 01:24:44;;;;;;;8.55;5.45;;;;;;;;;;5043147;28;20028;-49
2022/05/16 01:27:09;;;;;;;8.03;5.70;;;;;;;;;;5040738;28;20020;-49
2022/05/16 01:29:34;;;;;;;6.77;5.33;;;;;;;;;;5040767;28;20295;-50
2022/05/16 01:31:59;;;;;;;7.20;5.40;;;;;;;;;;5039990;28;20319;-48
2022/05/16 01:34:24;;;;;;;7.43;5.43;;;;;;;;;;5040766;28;20057;-49
2022/05/16 01:36:50;;;;;;;6.30;5.70;;;;;;;;;;5040460;28;20012;-49
2022/05/16 01:39:15;;;;;;;7.80;5.60;;;;;;;;;;5038224;28;20094;-49
2022/05/16 01:41:40;;;;;;;5.93;5.23;;;;;;;;;;5042409;28;20778;-49
2022/05/16 01:44:05;;;;;;;6.13;5.07;;;;;;;;;;5041159;28;20651;-49
2022/05/16 01:46:35;;;;;;;7.60;5.13;;;;;;;;;;5033768;28;20291;-49
2022/05/16 01:49:00;;;;;;;7.30;5.50;;;;;;;;;;5037603;28;20267;-48
2022/05/16 01:51:25;;;;;;;6.93;5.10;;;;;;;;;;5037610;28;20554;-49
2022/05/16 01:53:51;;;;;;;7.40;4.80;;;;;;;;;;5044102;28;20025;-49
2022/05/16 01:56:16;;;;;;;10.33;5.13;;;;;;;;;;5038811;28;20029;-49
2022/05/16 01:58:41;;;;;;;6.50;5.05;;;;;;;;;;5038914;28;20021;-49
2022/05/16 02:01:07;;;;;;;7.47;5.10;;;;;;;;;;5035639;28;20104;-49
2022/05/16 02:03:32;;;;;;;5.80;4.85;;;;;;;;;;5042327;28;20472;-50
2022/05/16 02:05:57;;;;;;;6.17;4.90;;;;;;;;;;5042227;28;20928;-49
2022/05/16 02:08:22;;;;;;;6.95;5.35;;;;;;;;;;5037324;28;20495;-50
2022/05/16 02:10:48;;;;;;;6.63;5.30;;;;;;;;;;5041898;28;20525;-50
2022/05/16 02:13:13;;;;;;;7.90;5.33;;;;;;;;;;5040544;28;20291;-49
2022/05/16 02:15:39;;;;;;;7.63;5.25;;;;;;;;;;5040850;28;20283;-50
2022/05/16 02:18:05;;;;;;;6.05;4.93;;;;;;;;;;5038658;28;20021;-50
2022/05/16 02:20:30;;;;;;;6.72;5.47;;;;;;;;;;5036360;28;20127;-51
2022/05/16 02:25:40;;;;;;;6.93;5.30;;;;;;;;;;5038529;28;20293;-49
2022/05/16 02:28:06;;;;;;;6.75;5.00;;;;;;;;;;5036245;28;20108;-49
2022/05/16 02:30:31;;;;;;;6.95;4.93;;;;;;;;;;5042638;28;20049;-50
2022/05/16 02:32:57;;;;;;;6.47;5.03;;;;;;;;;;5037849;28;20045;-49
2022/05/16 02:35:22;;;;;;;6.50;5.43;;;;;;;;;;5038534;28;20291;-50
2022/05/16 02:37:48;;;;;;;6.25;4.70;;;;;;;;;;5038704;28;20512;-51
2022/05/16 02:40:13;;;;;;;5.53;4.65;;;;;;;;;;5038232;28;20027;-50
2022/05/16 02:42:38;;;;;;;8.77;5.43;;;;;;;;;;5040992;28;20052;-49
2022/05/16 02:45:04;;;;;;;10.10;5.30;;;;;;;;;;5041751;28;20495;-50
2022/05/16 02:47:29;;;;;;;5.68;4.95;;;;;;;;;;5036557;28;20655;-50
2022/05/16 02:49:54;;;;;;;7.07;5.60;;;;;;;;;;5039289;28;20017;-50
2022/05/16 02:52:20;;;;;;;7.53;5.40;;;;;;;;;;5038354;28;20017;-50
2022/05/16 02:54:45;;;;;;;6.82;5.70;;;;;;;;;;5040190;28;20267;-50
2022/05/16 02:57:10;;;;;;;6.05;5.30;;;;;;;;;;5037667;28;20001;-50
2022/05/16 02:59:36;;;;;;;6.95;5.30;;;;;;;;;;5036048;28;20017;-50
2022/05/16 03:02:06;;;;;;;6.53;5.53;;;;;;;;;;5035857;28;20020;-50
2022/05/16 03:04:31;;;;;;;7.80;5.57;;;;;;;;;;5022865;28;20025;-49
2022/05/16 03:06:56;;;;;;;7.22;5.20;;;;;;;;;;5024365;28;20421;-50
2022/05/16 03:09:22;;;;;;;6.37;4.70;;;;;;;;;;5022406;28;20001;-51
2022/05/16 03:11:47;;;;;;;5.97;4.72;;;;;;;;;;5023450;28;21088;-50
2022/05/16 03:14:13;;;;;;;5.77;5.13;;;;;;;;;;5026160;28;20787;-50
2022/05/16 03:16:38;;;;;;;5.57;4.77;;;;;;;;;;5024240;28;20287;-50
2022/05/16 03:19:03;;;;;;;6.43;4.63;;;;;;;;;;5024878;28;20275;-50
2022/05/16 03:21:30;;;;;;;5.22;4.72;;;;;;;;;;5024792;28;20463;-49
2022/05/16 03:23:55;;;;;;;5.95;4.85;;;;;;;;;;5026229;28;20033;-50
2022/05/16 03:26:20;;;;;;;5.97;5.03;;;;;;;;;;5024489;28;21339;-51
2022/05/16 03:28:46;;;;;;;5.93;4.53;;;;;;;;;;5021842;28;20037;-49
2022/05/16 03:31:11;;;;;;;4.77;4.27;;;;;;;;;;5022136;28;20275;-49
2022/05/16 03:33:36;;;;;;;4.80;4.27;;;;;;;;;;5030663;28;20295;-49
2022/05/16 03:36:01;;;;;;;6.13;4.80;;;;;;;;;;5029847;28;20029;-49
2022/05/16 03:41:11;;;;;;;5.40;4.45;;;;;;;;;;5041690;28;20283;-48
2022/05/16 03:43:37;;;;;;;5.63;4.90;;;;;;;;;;5045405;28;20036;-51
2022/05/16 03:46:02;;;;;;;6.68;5.03;;;;;;;;;;5044334;28;20524;-50
2022/05/16 03:48:27;;;;;;;6.80;5.60;;;;;;;;;;5041756;28;20017;-52
2022/05/16 03:50:52;;;;;;;6.00;5.37;;;;;;;;;;5035584;28;20484;-52
2022/05/16 03:53:18;;;;;;;5.97;5.00;;;;;;;;;;5026592;28;20295;-51
2022/05/16 03:55:43;;;;;;;8.50;5.87;;;;;;;;;;5036422;28;20021;-53
2022/05/16 03:58:08;;;;;;;6.40;5.67;;;;;;;;;;5033455;28;20025;-50
2022/05/16 04:00:33;;;;;;;9.57;5.68;;;;;;;;;;5038546;28;20165;-51
2022/05/16 04:02:59;;;;;;;6.60;5.30;;;;;;;;;;5041238;28;20496;-52
2022/05/16 04:05:24;;;;;;;7.30;5.60;;;;;;;;;;5039369;28;20496;-51
2022/05/16 04:07:50;;;;;;;5.82;5.22;;;;;;;;;;5042449;28;20336;-52
2022/05/16 04:10:15;;;;;;;6.72;5.93;;;;;;;;;;5043103;28;20020;-51
2022/05/16 04:12:41;;;;;;;9.00;5.90;;;;;;;;;;5043668;28;20205;-51
2022/05/16 04:15:06;;;;;;;9.02;5.85;;;;;;;;;;5045367;28;20303;-51
2022/05/16 04:17:32;;;;;;;9.05;6.28;;;;;;;;;;5038062;28;20032;-50
2022/05/16 04:19:57;;;;;;;7.40;6.03;;;;;;;;;;5038061;28;20033;-50
2022/05/16 04:22:22;;;;;;;9.38;6.57;;;;;;;;;;5041243;28;20725;-50
2022/05/16 04:24:48;;;;;;;7.73;6.07;;;;;;;;;;5041926;28;20100;-50
2022/05/16 04:27:13;;;;;;;7.37;6.00;;;;;;;;;;5043330;28;20271;-51
2022/05/16 04:29:38;;;;;;;9.57;6.40;;;;;;;;;;5039886;28;20044;-51
2022/05/16 04:32:04;;;;;;;9.13;6.07;;;;;;;;;;5041097;28;20488;-50
2022/05/16 04:34:29;;;;;;;9.07;6.35;;;;;;;;;;5039827;28;20025;-50
2022/05/16 04:36:54;;;;;;;9.27;5.77;;;;;;;;;;5043221;28;20017;-51
2022/05/16 04:39:19;;;;;;;8.75;6.43;;;;;;;;;;5040117;28;20028;-51
2022/05/16 04:44:30;;;;;;;10.15;6.28;;;;;;;;;;5036995;28;20270;-50
2022/05/16 04:46:56;;;;;;;11.18;6.65;;;;;;;;;;5040419;28;20039;-52
2022/05/16 04:49:21;;;;;;;11.63;6.35;;;;;;;;;;5043764;28;20020;-51
2022/05/16 04:51:46;;;;;;;11.77;6.63;;;;;;;;;;5036682;28;20052;-51
2022/05/16 04:54:11;;;;;;;12.17;6.93;;;;;;;;;;5039879;28;20302;-51
2022/05/16 04:56:37;;;;;;;10.80;6.57;;;;;;;;;;5038711;28;20025;-51
2022/05/16 04:59:02;;;;;;;13.90;6.68;;;;;;;;;;5040124;28;20021;-52
2022/05/16 05:01:27;;;;;;;14.38;7.03;;;;;;;;;;5040214;28;20013;-50
2022/05/16 05:03:52;;;;;;;13.00;7.17;;;;;;;;;;5040182;28;20013;-50
2022/05/16 05:06:18;;;;;;;11.47;6.37;;;;;;;;;;5038996;28;20287;-50
2022/05/16 05:08:43;;;;;;;12.43;7.07;;;;;;;;;;5029535;28;20025;-51
2022/05/16 05:16:36;;;;;;;14.40;7.35;;;;;;;;;;5026875;28;20116;-49
2022/05/16 05:19:01;;;;;;;14.33;6.67;;;;;;;;;;5034121;28;20558;-51
2022/05/16 05:21:27;;;;;;;11.93;6.70;;;;;;;;;;5041289;28;20325;-52
2022/05/16 05:23:52;;;;;;;14.45;6.95;;;;;;;;;;5041109;28;20162;-51
2022/05/16 05:26:18;;;;;;;11.00;6.72;;;;;;;;;;5042534;28;20506;-51
2022/05/16 05:28:43;;;;;;;10.53;7.03;;;;;;;;;;5040490;28;20127;-51
2022/05/16 05:31:11;;;;;;;9.80;6.43;;;;;;;;;;5043104;28;20281;-51
2022/05/16 05:33:36;;;;;;;11.35;6.70;;;;;;;;;;5036505;28;20306;-51
2022/05/16 05:36:02;;;;;;;11.07;6.30;;;;;;;;;;5040938;28;20017;-52
2022/05/16 05:38:27;;;;;;;9.65;6.07;;;;;;;;;;5034522;28;20049;-51
2022/05/16 05:40:52;;;;;;;9.57;6.20;;;;;;;;;;5032438;28;20466;-52
2022/05/16 05:43:17;;;;;;;11.03;6.90;;;;;;;;;;5042443;28;20040;-52
2022/05/16 05:45:43;;;;;;;12.32;7.07;;;;;;;;;;5044779;28;20036;-51
2022/05/16 05:48:08;;;;;;;12.85;7.60;;;;;;;;;;5022014;28;20024;-51
2022/05/16 05:50:34;;;;;;;9.95;6.88;;;;;;;;;;5038642;28;20024;-51
2022/05/16 05:52:59;;;;;;;9.40;6.17;;;;;;;;;;5039161;28;20557;-52
2022/05/16 05:55:24;;;;;;;9.80;6.60;;;;;;;;;;5042328;28;20483;-51
2022/05/16 05:57:49;;;;;;;9.33;6.53;;;;;;;;;;5038912;28;20275;-51
2022/05/16 06:00:15;;;;;;;10.83;6.77;;;;;;;;;;5040226;28;20454;-50
2022/05/16 06:02:40;;;;;;;9.65;6.50;;;;;;;;;;5038894;28;20103;-50
2022/05/16 06:05:07;;;;;;;12.63;6.20;;;;;;;;;;5043755;28;20028;-51
2022/05/16 06:07:32;;;;;;;11.23;6.22;;;;;;;;;;5035055;28;20545;-50
2022/05/16 06:09:57;;;;;;;9.73;5.82;;;;;;;;;;5040820;28;20025;-52
2022/05/16 06:12:23;;;;;;;9.57;5.90;;;;;;;;;;5035155;28;20021;-53
2022/05/16 06:14:48;;;;;;;6.85;5.18;;;;;;;;;;5036063;28;20796;-51
2022/05/16 06:17:13;;;;;;;10.27;5.80;;;;;;;;;;5037318;28;21655;-51
2022/05/16 06:19:39;;;;;;;9.57;5.47;;;;;;;;;;5037684;28;20062;-50
2022/05/16 06:22:04;;;;;;;9.67;5.37;;;;;;;;;;5040824;28;20769;-50
2022/05/16 06:27:13;;;;;;;13.10;5.65;;;;;;;;;;5037552;28;20274;-51
2022/05/16 06:29:39;;;;;;;12.00;5.57;;;;;;;;;;5041439;28;20551;-51
2022/05/16 06:32:04;;;;;;;9.23;5.35;;;;;;;;;;5037947;28;20102;-51
2022/05/16 06:34:29;;;;;;;11.55;5.20;;;;;;;;;;5035111;28;20039;-50
2022/05/16 06:36:56;;;;;;;12.68;5.95;;;;;;;;;;5038613;28;20049;-51
2022/05/16 06:39:21;;;;;;;10.57;5.20;;;;;;;;;;5039338;28;20826;-51
2022/05/16 06:41:46;;;;;;;8.83;5.20;;;;;;;;;;5037451;28;20264;-51
2022/05/16 06:44:14;;;;;;;9.23;4.83;;;;;;;;;;5039765;28;20011;-51
2022/05/16 06:46:40;;;;;;;11.77;5.25;;;;;;;;;;5033714;28;20021;-50
2022/05/16 06:49:05;;;;;;;13.52;5.72;;;;;;;;;;5039185;28;20020;-51
2022/05/16 06:51:30;;;;;;;9.03;4.83;;;;;;;;;;5039401;28;20693;-51
2022/05/16 06:53:55;;;;;;;11.57;5.00;;;;;;;;;;5035402;28;20512;-51
2022/05/16 06:56:21;;;;;;;11.95;5.25;;;;;;;;;;5039435;28;20540;-50
2022/05/16 06:58:46;;;;;;;10.97;5.70;;;;;;;;;;5039963;28;20098;-51
2022/05/16 07:01:11;;;;;;;15.65;5.63;;;;;;;;;;5037654;28;20837;-51
2022/05/16 07:03:38;;;;;;;8.57;4.90;;;;;;;;;;5036873;28;20110;-51
2022/05/16 07:06:03;;;;;;;9.85;5.85;;;;;;;;;;5038965;28;20335;-51
2022/05/16 07:08:28;;;;;;;8.95;4.80;;;;;;;;;;5038940;28;20084;-50
2022/05/16 07:10:53;;;;;;;9.07;4.90;;;;;;;;;;5038805;28;20029;-51
2022/05/16 07:13:19;;;;;;;8.40;5.00;;;;;;;;;;5040911;28;20025;-51
2022/05/16 07:15:44;;;;;;;7.93;5.00;;;;;;;;;;5041029;28;20263;-48
2022/05/16 07:18:09;;;;;;;9.02;4.57;;;;;;;;;;5038424;28;20013;-51
2022/05/16 07:20:35;;;;;;;7.63;4.78;;;;;;;;;;5038117;28;20009;-51
2022/05/16 07:23:01;;;;;;;13.23;5.38;;;;;;;;;;5037933;28;20028;-50
2022/05/16 07:25:27;;;;;;;9.82;5.88;;;;;;;;;;5042899;28;20029;-52
2022/05/16 07:27:59;;;;;;;9.77;4.57;;;;;;;;;;5038298;28;20029;-50
2022/05/16 07:30:28;;;;;;;11.10;4.63;;;;;;;;;;5036393;28;20076;-52
2022/05/16 07:32:55;;;;;;;11.32;5.28;;;;;;;;;;5039008;28;20150;-51
2022/05/16 07:35:22;;;;;;;9.05;4.95;;;;;;;;;;5036503;28;20028;-51
2022/05/16 07:37:47;;;;;;;8.98;4.90;;;;;;;;;;5038372;28;20136;-51
2022/05/16 07:40:13;;;;;;;9.80;4.87;;;;;;;;;;5034103;28;20146;-51
2022/05/16 07:42:39;;;;;;;12.05;5.05;;;;;;;;;;5039943;28;20096;-51
2022/05/16 07:45:05;;;;;;;14.97;6.07;;;;;;;;;;5038443;28;20028;-50
2022/05/16 07:47:31;;;;;;;12.02;5.13;;;;;;;;;;5039322;28;20256;-51
2022/05/16 07:49:57;;;;;;;7.40;5.05;;;;;;;;;;5040648;28;20016;-50
2022/05/16 07:52:22;;;;;;;8.60;5.07;;;;;;;;;;5039846;28;20722;-50
2022/05/16 07:54:47;;;;;;;9.88;5.40;;;;;;;;;;5039622;28;20016;-50
2022/05/16 07:57:13;;;;;;;7.00;5.03;;;;;;;;;;5039739;28;20021;-50
2022/05/16 07:59:39;;;;;;;7.68;4.65;;;;;;;;;;5035122;28;20317;-51
2022/05/16 08:02:04;;;;;;;7.72;4.53;;;;;;;;;;5038374;28;20025;-50
2022/05/16 08:04:29;;;;;;;9.93;4.53;;;;;;;;;;5039233;28;20028;-51
2022/05/16 08:06:54;;;;;;;7.65;4.43;;;;;;;;;;5037464;28;21095;-51
2022/05/16 08:12:24;;;;;;;8.20;4.10;;;;;;;;;;5016496;28;20042;-50
2022/05/16 08:14:49;;;;;;;8.82;4.20;;;;;;;;;;5018896;28;20128;-52
2022/05/16 08:17:15;;;;;;;6.65;3.80;;;;;;;;;;5029511;28;20850;-51
2022/05/16 08:19:40;;;;;;;7.67;3.87;;;;;;;;;;5041562;28;20024;-51
2022/05/16 08:22:05;;;;;;;6.63;3.43;;;;;;;;;;5039597;28;20017;-51
2022/05/16 08:24:30;;;;;;;8.10;4.07;;;;;;;;;;5042700;28;20308;-51
2022/05/16 08:26:56;;;;;;;7.93;3.93;;;;;;;;;;5044772;28;20036;-51
2022/05/16 08:29:21;;;;;;;7.53;4.03;;;;;;;;;;5042337;28;20352;-50
2022/05/16 08:31:46;;;;;;;5.75;3.75;;;;;;;;;;5043435;28;20021;-51
2022/05/16 08:34:11;;;;;;;7.23;3.70;;;;;;;;;;5042346;28;20029;-51
2022/05/16 08:42:05;;;;;;;7.95;3.25;;;;;;;;;;5042276;28;20059;-51
2022/05/16 08:44:39;;;;;;;8.48;3.10;;;;;;;;;;5040415;28;20033;-51
2022/05/16 08:47:23;;;;;;;6.05;3.10;;;;;;;;;;5038156;28;20551;-51
2022/05/16 08:49:52;;;;;;;6.93;2.72;;;;;;;;;;5038858;28;20133;-51
2022/05/16 08:52:22;;;;;;;5.25;3.00;;;;;;;;;;5031347;28;20037;-51
2022/05/16 08:55:06;;;;;;;4.40;2.70;;;;;;;;;;5037331;28;20031;-52
2022/05/16 08:57:33;;;;;;;5.50;2.88;;;;;;;;;;5029512;28;20020;-52
2022/05/16 09:00:01;;;;;;;4.65;2.63;;;;;;;;;;5040220;28;20100;-52
2022/05/16 09:02:26;;;;;;;4.45;2.47;;;;;;;;;;5039994;28;20028;-51
2022/05/16 09:05:01;;;;;;;4.30;2.60;;;;;;;;;;5039955;28;20013;-51
2022/05/16 09:07:34;;;;;;;5.05;2.20;;;;;;;;;;5027618;28;20355;-51
2022/05/16 09:10:09;;;;;;;3.33;2.00;;;;;;;;;;5040766;28;20048;-52
2022/05/16 09:12:37;;;;;;;3.85;2.15;;;;;;;;;;5039061;28;20107;-52
2022/05/16 09:15:15;;;;;;;5.60;2.75;;;;;;;;;;5037097;28;20369;-52
2022/05/16 09:17:43;;;;;;;7.32;2.22;;;;;;;;;;5038290;28;20021;-52
2022/05/16 09:20:24;;;;;;;4.35;1.90;;;;;;;;;;5038762;28;20021;-52
2022/05/16 09:23:01;;;;;;;3.85;1.60;;;;;;;;;;5041147;28;20024;-51
2022/05/16 09:25:28;;;;;;;4.38;1.98;;;;;;;;;;5041066;28;20063;-52
2022/05/16 09:30:40;;;;;;;5.05;1.80;;;;;;;;;;5036646;28;21665;-52
2022/05/16 09:33:05;;;;;;;4.00;2.10;;;;;;;;;;5039691;28;20043;-52
2022/05/16 09:35:36;;;;;;;4.28;2.25;;;;;;;;;;5039458;28;20108;-51
2022/05/16 09:38:02;;;;;;;3.97;2.38;;;;;;;;;;5036004;28;20025;-51
2022/05/16 09:40:34;;;;;;;2.40;2.00;;;;;;;;;;5038104;28;20083;-51
2022/05/16 09:43:03;;;;;;;2.95;1.63;;;;;;;;;;5036105;28;20386;-51
2022/05/16 09:45:29;;;;;;;2.30;1.60;;;;;;;;;;5041000;28;20020;-51
2022/05/16 09:47:54;;;;;;;2.47;1.42;;;;;;;;;;5035994;28;20037;-51
2022/05/16 09:50:28;;;;;;;4.37;2.00;;;;;;;;;;5042136;28;20479;-50
2022/05/16 09:53:02;;;;;;;3.47;1.90;;;;;;;;;;5043191;28;20036;-49
2022/05/16 09:55:33;;;;;;;3.53;1.63;;;;;;;;;;5042171;28;20025;-50
2022/05/16 09:58:15;;;;;;;4.63;1.60;;;;;;;;;;5038314;28;20028;-50
2022/05/16 10:00:58;;;;;;;5.18;1.55;;;;;;;;;;5035262;28;20017;-50
2022/05/16 10:03:24;;;;;;;4.13;1.60;;;;;;;;;;5042369;28;20553;-51
2022/05/16 10:05:51;;;;;;;4.43;1.60;;;;;;;;;;5039670;28;20013;-50
2022/05/16 10:08:27;;;;;;;4.18;1.65;;;;;;;;;;5035524;28;20025;-52
2022/05/16 10:10:52;;;;;;;4.15;1.98;;;;;;;;;;5040740;28;20411;-49
2022/05/16 10:13:18;;;;;;;3.53;1.52;;;;;;;;;;5031130;28;20029;-50
2022/05/16 10:15:44;;;;;;;2.92;1.20;;;;;;;;;;5040438;28;20028;-51
2022/05/16 10:18:12;;;;;;;4.85;2.13;;;;;;;;;;5035698;28;20476;-50
2022/05/16 10:20:42;;;;;;;5.15;1.63;;;;;;;;;;5037840;28;20009;-50
2022/05/16 10:23:08;;;;;;;3.17;1.40;;;;;;;;;;5036843;28;20013;-50
2022/05/16 10:25:36;;;;;;;2.30;1.45;;;;;;;;;;5041844;28;20075;-51
2022/05/16 10:28:01;;;;;;;2.95;1.52;;;;;;;;;;5034887;28;21361;-52
2022/05/16 10:30:27;;;;;;;3.03;1.35;;;;;;;;;;5039155;28;20025;-50
2022/05/16 10:33:25;;;;;;;4.07;1.50;;;;;;;;;;5040403;28;20116;-51
2022/05/16 10:36:01;;;;;;;2.85;1.42;;;;;;;;;;5041273;28;20017;-51
2022/05/16 10:38:32;;;;;;;3.88;1.50;;;;;;;;;;5036018;28;20009;-51
2022/05/16 10:40:58;;;;;;;2.65;1.45;;;;;;;;;;5033096;28;20098;-51
2022/05/16 10:43:29;;;;;;;2.97;1.52;;;;;;;;;;5039246;28;20041;-51
2022/05/16 10:45:56;;;;;;;3.53;1.52;;;;;;;;;;5034048;28;20027;-51
2022/05/16 10:48:25;;;;;;;3.55;1.67;;;;;;;;;;5039254;28;20017;-51
2022/05/16 10:51:13;;;;;;;4.60;1.40;;;;;;;;;;5038976;28;20013;-51
2022/05/16 10:53:56;;;;;;;2.45;1.27;;;;;;;;;;5034821;28;20025;-50
2022/05/16 10:56:22;;;;;;;3.58;1.50;;;;;;;;;;5023864;28;20373;-51
2022/05/16 10:58:55;;;;;;;2.90;1.70;;;;;;;;;;5023933;28;20079;-51
2022/05/16 11:01:21;;;;;;;3.10;1.35;;;;;;;;;;5037584;28;20070;-52
2022/05/16 11:03:51;;;;;;;2.08;1.40;;;;;;;;;;5033806;28;20099;-53
2022/05/16 11:06:25;;;;;;;4.68;1.52;;;;;;;;;;5038792;28;20027;-52
2022/05/16 11:09:02;;;;;;;4.75;1.58;;;;;;;;;;5036516;28;20431;-52
2022/05/16 11:11:30;;;;;;;2.35;1.10;;;;;;;;;;5035547;28;20487;-51
2022/05/16 11:14:05;;;;;;;4.25;1.40;;;;;;;;;;5032585;28;20036;-51
2022/05/16 11:16:34;;;;;;;3.83;1.60;;;;;;;;;;5039376;28;20017;-50
2022/05/16 11:19:17;;;;;;;2.88;1.20;;;;;;;;;;5037602;28;20357;-51
2022/05/16 11:22:00;;;;;;;3.58;1.38;;;;;;;;;;5024978;28;20095;-51
2022/05/16 11:24:30;;;;;;;3.00;1.33;;;;;;;;;;5038676;28;20480;-51
2022/05/16 11:27:02;;;;;;;2.72;1.20;;;;;;;;;;5040273;28;20108;-50
2022/05/16 11:29:32;;;;;;;2.95;1.38;;;;;;;;;;5036587;28;20051;-51
2022/05/16 11:31:57;;;;;;;1.95;1.10;;;;;;;;;;5038951;28;20055;-51
2022/05/16 11:34:26;;;;;;;2.72;1.30;;;;;;;;;;5035466;28;20475;-51
2022/05/16 11:36:57;;;;;;;2.10;1.17;;;;;;;;;;5025560;28;20114;-51
2022/05/16 11:39:25;;;;;;;2.55;1.10;;;;;;;;;;5036496;28;20032;-51
2022/05/16 11:41:54;;;;;;;3.78;1.17;;;;;;;;;;5038123;28;20798;-51
2022/05/16 11:44:23;;;;;;;1.88;1.20;;;;;;;;;;5039349;28;20519;-51
2022/05/16 11:46:50;;;;;;;3.03;1.20;;;;;;;;;;5040358;28;20416;-51
2022/05/16 11:49:24;;;;;;;2.42;1.20;;;;;;;;;;5033622;28;21008;-51
2022/05/16 11:52:08;;;;;;;3.35;1.40;;;;;;;;;;5035925;28;20092;-51
2022/05/16 11:54:35;;;;;;;2.95;1.58;;;;;;;;;;5040444;28;20025;-51
2022/05/16 12:02:33;;;;;;;5.63;1.50;;;;;;;;;;5045067;28;20112;-51
2022/05/16 12:05:01;;;;;;;3.13;1.30;;;;;;;;;;5042497;28;20112;-51
2022/05/16 12:07:30;;;;;;;2.53;1.17;;;;;;;;;;5043265;28;20096;-53
2022/05/16 12:10:15;;;;;;;2.72;1.35;;;;;;;;;;5041284;28;20017;-51
2022/05/16 12:12:47;;;;;;;2.75;1.20;;;;;;;;;;5034554;28;20080;-50
2022/05/16 12:15:24;;;;;;;1.98;1.20;;;;;;;;;;5042708;28;20013;-51
2022/05/16 12:17:51;;;;;;;4.25;1.10;;;;;;;;;;5042480;28;20032;-51
2022/05/16 12:20:16;;;;;;;2.67;1.33;;;;;;;;;;5041391;28;20086;-51
2022/05/16 12:22:43;;;;;;;4.95;1.27;;;;;;;;;;5042112;28;20029;-52
2022/05/16 12:25:12;;;;;;;3.42;1.17;;;;;;;;;;5042074;28;20025;-51
2022/05/16 12:27:39;;;;;;;2.85;1.08;;;;;;;;;;5043071;28;20029;-51
2022/05/16 12:30:06;;;;;;;2.45;1.40;;;;;;;;;;5040953;28;20057;-53
2022/05/16 12:32:31;;;;;;;2.92;1.30;;;;;;;;;;5042665;28;20124;-50
2022/05/16 12:35:00;;;;;;;2.60;1.20;;;;;;;;;;5040447;28;20470;-51
2022/05/16 12:37:25;;;;;;;2.88;1.08;;;;;;;;;;5027728;28;20009;-53
2022/05/16 12:40:06;;;;;;;2.17;1.00;;;;;;;;;;5030459;28;20028;-51
2022/05/16 12:42:50;;;;;;;3.30;1.60;;;;;;;;;;5028024;28;20086;-51
2022/05/16 12:45:15;;;;;;;3.13;1.05;;;;;;;;;;5028844;28;20010;-51
2022/05/16 12:48:04;;;;;;;1.97;1.07;;;;;;;;;;5024939;28;20481;-52
2022/05/16 12:50:48;;;;;;;1.67;0.98;;;;;;;;;;5027912;28;20034;-52
2022/05/16 12:53:13;;;;;;;2.58;0.90;;;;;;;;;;5028017;28;20033;-51
2022/05/16 12:55:38;;;;;;;2.07;1.17;;;;;;;;;;5025921;28;20083;-51
2022/05/16 12:58:06;;;;;;;2.60;1.30;;;;;;;;;;5028026;28;20032;-51
2022/05/16 13:00:40;;;;;;;1.20;0.70;;;;;;;;;;5038802;28;20009;-51
2022/05/16 13:03:14;;;;;;;2.10;1.00;;;;;;;;;;5038097;28;20451;-51
2022/05/16 13:05:47;;;;;;;1.65;1.20;;;;;;;;;;5040575;28;20025;-54
2022/05/16 13:08:18;;;;;;;3.58;1.17;;;;;;;;;;5040197;28;20021;-51
2022/05/16 13:10:43;;;;;;;2.33;1.00;;;;;;;;;;5043237;28;20522;-51
2022/05/16 13:13:11;;;;;;;3.20;1.20;;;;;;;;;;5041456;28;20123;-51
2022/05/16 13:15:41;;;;;;;2.92;0.90;;;;;;;;;;5045525;28;20383;-51
2022/05/16 13:18:10;;;;;;;3.53;0.90;;;;;;;;;;5031339;28;20120;-51
2022/05/16 13:20:37;;;;;;;3.13;1.35;;;;;;;;;;5037578;28;20021;-52
2022/05/16 13:23:03;;;;;;;3.22;1.00;;;;;;;;;;5058400;28;20040;-52
2022/05/16 13:25:28;;;;;;;2.55;1.13;;;;;;;;;;5023863;28;20018;-51
2022/05/16 13:30:38;;;;;;;5.00;1.08;;;;;;;;;;5027215;28;20949;-51
2022/05/16 13:33:04;;;;;;;2.42;1.00;;;;;;;;;;5059622;28;20132;-51
2022/05/16 13:35:35;;;;;;;3.13;1.20;;;;;;;;;;5037538;28;20102;-50
2022/05/16 13:38:01;;;;;;;2.50;1.08;;;;;;;;;;5039272;28;20333;-51
2022/05/16 13:40:27;;;;;;;2.45;1.25;;;;;;;;;;5040977;28;20092;-51
2022/05/16 13:42:54;;;;;;;2.03;1.15;;;;;;;;;;5038406;28;20025;-52
2022/05/16 13:45:26;;;;;;;3.17;1.10;;;;;;;;;;5042877;28;20021;-51
2022/05/16 13:47:51;;;;;;;3.10;1.10;;;;;;;;;;5039480;28;20492;-50
2022/05/16 13:50:23;;;;;;;2.45;0.90;;;;;;;;;;5041532;28;20074;-50
2022/05/16 13:52:49;;;;;;;2.17;1.40;;;;;;;;;;5038791;28;20512;-50
2022/05/16 13:55:15;;;;;;;2.92;1.20;;;;;;;;;;5040238;28;20047;-50
2022/05/16 13:57:40;;;;;;;3.55;1.30;;;;;;;;;;5031248;28;20030;-50
2022/05/16 14:00:20;;;;;;;2.67;1.38;;;;;;;;;;5042444;28;20071;-54
2022/05/16 14:02:53;;;;;;;3.25;1.20;;;;;;;;;;5043194;28;20016;-53
2022/05/16 14:05:23;;;;;;;2.72;1.20;;;;;;;;;;5043445;28;20488;-54
2022/05/16 14:07:48;;;;;;;2.65;1.17;;;;;;;;;;5026225;28;20028;-52
2022/05/16 14:10:15;;;;;;;1.98;1.33;;;;;;;;;;5043832;28;20423;-51
2022/05/16 14:12:44;;;;;;;2.47;1.15;;;;;;;;;;5042529;28;20024;-51
2022/05/16 14:15:14;;;;;;;1.52;1.20;;;;;;;;;;5042934;28;20020;-52
2022/05/16 14:17:40;;;;;;;2.90;1.40;;;;;;;;;;5035510;28;20070;-51
2022/05/16 14:20:11;;;;;;;2.42;1.02;;;;;;;;;;5036708;28;20025;-51
2022/05/16 14:22:39;;;;;;;3.08;1.25;;;;;;;;;;5040926;28;20036;-51
2022/05/16 14:25:05;;;;;;;2.63;1.23;;;;;;;;;;5036167;28;20109;-52
2022/05/16 14:27:34;;;;;;;2.50;1.50;;;;;;;;;;5036595;28;20494;-50
2022/05/16 14:30:00;;;;;;;2.25;1.10;;;;;;;;;;5032008;28;20045;-52
2022/05/16 14:32:25;;;;;;;1.75;1.02;;;;;;;;;;5030594;28;20426;-52
2022/05/16 14:34:58;;;;;;;5.68;1.90;;;;;;;;;;5024148;28;20017;-51
2022/05/16 14:37:23;;;;;;;3.08;1.05;;;;;;;;;;5024239;28;20031;-51
2022/05/16 14:40:01;;;;;;;2.95;1.30;;;;;;;;;;5022911;28;20029;-52
2022/05/16 14:42:26;;;;;;;3.20;1.15;;;;;;;;;;5025423;28;20021;-51
2022/05/16 14:45:07;;;;;;;2.80;1.38;;;;;;;;;;5023172;28;20550;-51
2022/05/16 14:47:40;;;;;;;2.17;1.33;;;;;;;;;;5023478;28;20028;-51
2022/05/16 14:50:15;;;;;;;3.17;1.40;;;;;;;;;;5027402;28;20222;-51
2022/05/16 14:52:43;;;;;;;1.48;1.10;;;;;;;;;;5034120;28;20530;-54
2022/05/16 14:55:09;;;;;;;3.45;1.38;;;;;;;;;;5021782;28;20021;-53
2022/05/16 14:57:34;;;;;;;3.20;1.30;;;;;;;;;;5026426;28;20077;-51
2022/05/16 15:00:00;;;;;;;2.28;1.27;;;;;;;;;;5025697;28;20036;-51
2022/05/16 15:05:09;;;;;;;2.92;1.23;;;;;;;;;;5022661;28;20511;-51
2022/05/16 15:07:36;;;;;;;2.20;1.47;;;;;;;;;;5026292;28;20477;-52
2022/05/16 15:10:02;;;;;;;2.78;1.65;;;;;;;;;;4972370;28;20288;-52
2022/05/16 15:12:28;;;;;;;2.78;1.60;;;;;;;;;;5000529;28;20029;-50
2022/05/16 15:14:53;;;;;;;3.23;1.50;;;;;;;;;;5005174;28;20025;-51
2022/05/16 15:17:19;;;;;;;2.57;1.40;;;;;;;;;;5022396;28;20267;-51
2022/05/16 15:19:44;;;;;;;4.55;1.67;;;;;;;;;;5015788;28;20652;-49
2022/05/16 15:22:10;;;;;;;2.40;1.60;;;;;;;;;;5013731;28;20014;-51
2022/05/16 15:24:37;;;;;;;2.42;1.42;;;;;;;;;;5018607;28;20025;-51